Time,TemperatureF,DewpointF,PressureIn,WindDirection,WindDirectionDegrees,WindSpeedMPH,WindSpeedGustMPH,Humidity,HourlyPrecipIn,Conditions,Clouds,dailyrainin,SoftwareType,DateUTC
2013-05-30 00:11:00,66.7,20.5,29.56,WNW,292,0.0,-999.0,17,-99.99,,,0.00,Acu-Link.com,2013-05-30 06:11:00,
2013-05-30 00:27:00,65.7,22.3,29.55,SW,225,0.0,-999.0,19,-99.99,,,0.00,Acu-Link.com,2013-05-30 06:27:00,
2013-05-30 00:42:00,64.2,22.3,29.56,WSW,247,0.0,-999.0,20,-99.99,,,0.00,Acu-Link.com,2013-05-30 06:42:00,
2013-05-30 00:57:00,63.7,21.9,29.57,SW,225,0.0,-999.0,20,-99.99,,,0.00,Acu-Link.com,2013-05-30 06:57:00,
2013-05-30 01:12:00,63.1,23.6,29.56,South,180,0.0,-999.0,22,-99.99,,,0.00,Acu-Link.com,2013-05-30 07:12:00,
2013-05-30 01:27:00,63.0,24.6,29.57,South,180,0.0,-999.0,23,-99.99,,,0.00,Acu-Link.com,2013-05-30 07:27:00,
2013-05-30 01:43:00,62.6,24.3,29.58,NE,45,0.0,-999.0,23,-99.99,,,0.00,Acu-Link.com,2013-05-30 07:43:00,
2013-05-30 01:58:00,62.1,23.9,29.57,ENE,67,0.0,-999.0,23,-99.99,,,0.00,Acu-Link.com,2013-05-30 07:58:00,
2013-05-30 02:16:00,61.9,23.7,29.57,SSW,202,0.0,-999.0,23,-99.99,,,0.00,Acu-Link.com,2013-05-30 08:16:00,
2013-05-30 02:31:00,61.0,25.9,29.57,SSE,157,0.0,-999.0,26,-99.99,,,0.00,Acu-Link.com,2013-05-30 08:31:00,
2013-05-30 02:47:00,59.9,27.6,29.59,WSW,247,0.0,-999.0,29,-99.99,,,0.00,Acu-Link.com,2013-05-30 08:47:00,
2013-05-30 03:02:00,58.8,27.4,29.57,WSW,247,0.0,-999.0,30,-99.99,,,0.00,Acu-Link.com,2013-05-30 09:02:00,
2013-05-30 03:17:00,57.9,26.7,29.58,South,180,0.0,-999.0,30,-99.99,,,0.00,Acu-Link.com,2013-05-30 09:17:00,
2013-05-30 03:32:00,57.0,27.4,29.59,South,180,0.0,-999.0,32,-99.99,,,0.00,Acu-Link.com,2013-05-30 09:32:00,
2013-05-30 03:47:00,55.4,28.2,29.60,SW,225,0.0,-999.0,35,-99.99,,,0.00,Acu-Link.com,2013-05-30 09:47:00,
2013-05-30 04:03:00,54.5,28.8,29.60,South,180,0.0,-999.0,37,-99.99,,,0.00,Acu-Link.com,2013-05-30 10:03:00,
2013-05-30 04:18:00,54.0,29.6,29.61,ESE,112,0.0,-999.0,39,-99.99,,,0.00,Acu-Link.com,2013-05-30 10:18:00,
2013-05-30 04:33:00,54.0,28.3,29.61,West,270,0.0,-999.0,37,-99.99,,,0.00,Acu-Link.com,2013-05-30 10:33:00,
2013-05-30 04:48:00,52.9,27.3,29.62,SE,135,0.0,-999.0,37,-99.99,,,0.00,Acu-Link.com,2013-05-30 10:48:00,
2013-05-30 05:04:00,52.3,28.1,29.64,South,180,0.0,-999.0,39,-99.99,,,0.00,Acu-Link.com,2013-05-30 11:04:00,
2013-05-30 05:19:00,52.0,28.4,29.62,SSE,157,0.0,-999.0,40,-99.99,,,0.00,Acu-Link.com,2013-05-30 11:19:00,
2013-05-30 05:34:00,51.4,28.5,29.63,SSW,202,0.0,-999.0,41,-99.99,,,0.00,Acu-Link.com,2013-05-30 11:34:00,
2013-05-30 05:49:00,50.7,28.5,29.64,NW,315,0.0,-999.0,42,-99.99,,,0.00,Acu-Link.com,2013-05-30 11:49:00,
2013-05-30 06:05:00,50.2,29.1,29.65,South,180,0.0,-999.0,44,-99.99,,,0.00,Acu-Link.com,2013-05-30 12:05:00,
2013-05-30 06:20:00,50.7,29.6,29.65,South,180,0.0,-999.0,44,-99.99,,,0.00,Acu-Link.com,2013-05-30 12:20:00,
2013-05-30 06:35:00,54.3,32.3,29.67,SW,225,0.0,-999.0,43,-99.99,,,0.00,Acu-Link.com,2013-05-30 12:35:00,
2013-05-30 06:51:00,60.4,33.3,29.65,SSW,202,0.0,-999.0,36,-99.99,,,0.00,Acu-Link.com,2013-05-30 12:51:00,
2013-05-30 07:06:00,66.0,35.3,29.66,ESE,112,0.0,-999.0,32,-99.99,,,0.00,Acu-Link.com,2013-05-30 13:06:00,
2013-05-30 07:21:00,69.6,35.9,29.67,East,90,0.0,-999.0,29,-99.99,,,0.00,Acu-Link.com,2013-05-30 13:21:00,
2013-05-30 07:36:00,71.1,32.5,29.68,ESE,112,0.0,-999.0,24,-99.99,,,0.00,Acu-Link.com,2013-05-30 13:36:00,
2013-05-30 07:52:00,69.8,33.4,29.67,SW,225,0.0,-999.0,26,-99.99,,,0.00,Acu-Link.com,2013-05-30 13:52:00,
2013-05-30 08:07:00,72.9,32.9,29.67,ESE,112,0.0,-999.0,23,-99.99,,,0.00,Acu-Link.com,2013-05-30 14:07:00,
2013-05-30 08:22:00,75.9,30.7,29.69,WSW,247,1.1,-999.0,19,-99.99,,,0.00,Acu-Link.com,2013-05-30 14:22:00,
2013-05-30 08:37:00,76.6,28.5,29.68,North,0,1.7,-999.0,17,-99.99,,,0.00,Acu-Link.com,2013-05-30 14:37:00,
2013-05-30 08:53:00,80.1,28.3,29.68,NW,315,1.7,-999.0,15,-99.99,,,0.00,Acu-Link.com,2013-05-30 14:53:00,
2013-05-30 09:08:00,81.9,-27.7,29.68,NE,45,2.7,-999.0,1,-99.99,,,0.00,Acu-Link.com,2013-05-30 15:08:00,
2013-05-30 09:23:00,83.1,-27.0,29.68,East,90,2.2,-999.0,1,-99.99,,,0.00,Acu-Link.com,2013-05-30 15:23:00,
2013-05-30 09:38:00,84.9,-25.9,29.67,WSW,247,4.2,-999.0,1,-99.99,,,0.00,Acu-Link.com,2013-05-30 15:38:00,
2013-05-30 09:53:00,85.5,-25.6,29.67,WNW,292,3.2,-999.0,1,-99.99,,,0.00,Acu-Link.com,2013-05-30 15:53:00,
2013-05-30 10:09:00,85.3,17.3,29.67,South,180,2.7,-999.0,8,-99.99,,,0.00,Acu-Link.com,2013-05-30 16:09:00,
2013-05-30 10:24:00,84.6,33.4,29.67,SSW,202,5.3,-999.0,16,-99.99,,,0.00,Acu-Link.com,2013-05-30 16:24:00,
2013-05-30 10:39:00,88.2,-24.0,29.66,WSW,247,3.7,-999.0,1,-99.99,,,0.00,Acu-Link.com,2013-05-30 16:39:00,
2013-05-30 10:54:00,89.6,-23.2,29.65,West,270,1.1,-999.0,1,-99.99,,,0.00,Acu-Link.com,2013-05-30 16:54:00,
2013-05-30 11:09:00,90.3,-22.7,29.64,West,270,2.7,-999.0,1,-99.99,,,0.00,Acu-Link.com,2013-05-30 17:09:00,
2013-05-30 11:25:00,94.6,-20.2,29.64,ENE,67,2.2,-999.0,1,-99.99,,,0.00,Acu-Link.com,2013-05-30 17:25:00,
2013-05-30 11:40:00,93.7,-20.7,29.63,South,180,4.7,-999.0,1,-99.99,,,0.00,Acu-Link.com,2013-05-30 17:40:00,
2013-05-30 11:55:00,93.4,-20.9,29.64,NNE,22,2.7,-999.0,1,-99.99,,,0.00,Acu-Link.com,2013-05-30 17:55:00,
2013-05-30 12:10:00,90.9,-22.4,29.63,ENE,67,2.2,-999.0,1,-99.99,,,0.00,Acu-Link.com,2013-05-30 18:10:00,
2013-05-30 12:26:00,92.1,-21.7,29.63,SE,135,1.1,-999.0,1,-99.99,,,0.00,Acu-Link.com,2013-05-30 18:26:00,
2013-05-30 12:41:00,93.6,-20.8,29.63,SSE,157,7.3,-999.0,1,-99.99,,,0.00,Acu-Link.com,2013-05-30 18:41:00,
2013-05-30 12:56:00,96.3,-19.2,29.63,SSW,202,2.2,-999.0,1,-99.99,,,0.00,Acu-Link.com,2013-05-30 18:56:00,
2013-05-30 13:12:00,95.2,-19.9,29.62,North,0,3.2,-999.0,1,-99.99,,,0.00,Acu-Link.com,2013-05-30 19:12:00,
2013-05-30 13:27:00,94.8,-20.1,29.61,West,270,4.7,-999.0,1,-99.99,,,0.00,Acu-Link.com,2013-05-30 19:27:00,
2013-05-30 13:42:00,96.6,-19.0,29.59,SSW,202,3.7,-999.0,1,-99.99,,,0.00,Acu-Link.com,2013-05-30 19:42:00,
2013-05-30 13:57:00,95.9,-19.5,29.59,West,270,2.2,-999.0,1,-99.99,,,0.00,Acu-Link.com,2013-05-30 19:57:00,
2013-05-30 14:13:00,96.1,-19.3,29.59,WSW,247,8.3,-999.0,1,-99.99,,,0.00,Acu-Link.com,2013-05-30 20:13:00,
2013-05-30 14:28:00,94.8,-20.1,29.58,SE,135,0.0,-999.0,1,-99.99,,,0.00,Acu-Link.com,2013-05-30 20:28:00,
2013-05-30 14:43:00,96.3,-19.2,29.57,SSW,202,5.3,-999.0,1,-99.99,,,0.00,Acu-Link.com,2013-05-30 20:43:00,
2013-05-30 14:58:00,96.3,-19.2,29.58,WSW,247,9.4,-999.0,1,-99.99,,,0.00,Acu-Link.com,2013-05-30 20:58:00,
2013-05-30 15:14:00,97.2,-18.7,29.57,WSW,247,5.8,-999.0,1,-99.99,,,0.00,Acu-Link.com,2013-05-30 21:14:00,
2013-05-30 15:29:00,95.4,-19.7,29.56,South,180,6.8,-999.0,1,-99.99,,,0.00,Acu-Link.com,2013-05-30 21:29:00,
2013-05-30 15:44:00,95.7,-19.6,29.56,WSW,247,3.7,-999.0,1,-99.99,,,0.00,Acu-Link.com,2013-05-30 21:44:00,
2013-05-30 16:00:00,94.1,-20.5,29.56,ESE,112,3.7,-999.0,1,-99.99,,,0.00,Acu-Link.com,2013-05-30 22:00:00,
2013-05-30 16:15:00,93.7,-20.7,29.55,WNW,292,3.7,-999.0,1,-99.99,,,0.00,Acu-Link.com,2013-05-30 22:15:00,
2013-05-30 16:30:00,95.9,-19.5,29.54,North,0,2.2,-999.0,1,-99.99,,,0.00,Acu-Link.com,2013-05-30 22:30:00,
2013-05-30 16:45:00,96.1,-19.3,29.55,NNW,337,2.7,-999.0,1,-99.99,,,0.00,Acu-Link.com,2013-05-30 22:45:00,
2013-05-30 17:00:00,92.7,-21.3,29.55,NNE,22,4.7,-999.0,1,-99.99,,,0.00,Acu-Link.com,2013-05-30 23:00:00,
2013-05-30 17:16:00,93.2,-21.0,29.52,West,270,5.8,-999.0,1,-99.99,,,0.00,Acu-Link.com,2013-05-30 23:16:00,
2013-05-30 17:31:00,92.1,-21.7,29.53,NW,315,3.2,-999.0,1,-99.99,,,0.00,Acu-Link.com,2013-05-30 23:31:00,
2013-05-30 17:46:00,94.1,-20.5,29.53,West,270,4.2,-999.0,1,-99.99,,,0.00,Acu-Link.com,2013-05-30 23:46:00,
2013-05-30 18:01:00,92.3,-21.6,29.52,South,180,11.4,-999.0,1,-99.99,,,0.00,Acu-Link.com,2013-05-31 00:01:00,
2013-05-30 18:16:00,91.9,-21.8,29.54,WSW,247,4.2,-999.0,1,-99.99,,,0.00,Acu-Link.com,2013-05-31 00:16:00,
2013-05-30 18:31:00,91.4,-22.1,29.54,West,270,3.7,-999.0,1,-99.99,,,0.00,Acu-Link.com,2013-05-31 00:31:00,
2013-05-30 18:46:00,90.0,-22.9,29.53,WSW,247,3.2,-999.0,1,-99.99,,,0.00,Acu-Link.com,2013-05-31 00:46:00,
2013-05-30 19:02:00,90.1,-22.9,29.54,WSW,247,5.3,-999.0,1,-99.99,,,0.00,Acu-Link.com,2013-05-31 01:02:00,
2013-05-30 19:17:00,89.2,-23.4,29.53,NNW,337,3.7,-999.0,1,-99.99,,,0.00,Acu-Link.com,2013-05-31 01:17:00,
2013-05-30 19:32:00,87.4,-24.5,29.54,South,180,3.7,-999.0,1,-99.99,,,0.00,Acu-Link.com,2013-05-31 01:32:00,
2013-05-30 19:47:00,86.4,-25.0,29.55,WNW,292,1.7,-999.0,1,-99.99,,,0.00,Acu-Link.com,2013-05-31 01:47:00,
2013-05-30 20:03:00,84.0,-26.5,29.57,North,0,3.7,-999.0,1,-99.99,,,0.00,Acu-Link.com,2013-05-31 02:03:00,
2013-05-30 20:18:00,82.4,-27.4,29.56,SSW,202,0.0,-999.0,1,-99.99,,,0.00,Acu-Link.com,2013-05-31 02:18:00,
2013-05-30 20:33:00,81.1,-28.2,29.55,NE,45,1.1,-999.0,1,-99.99,,,0.00,Acu-Link.com,2013-05-31 02:33:00,
2013-05-30 20:48:00,80.1,-28.8,29.56,NNE,22,0.0,-999.0,1,-99.99,,,0.00,Acu-Link.com,2013-05-31 02:48:00,
2013-05-30 21:03:00,79.2,-29.3,29.57,SSE,157,0.0,-999.0,1,-99.99,,,0.00,Acu-Link.com,2013-05-31 03:03:00,
2013-05-30 21:18:00,77.7,-30.2,29.58,SSE,157,0.0,-999.0,1,-99.99,,,0.00,Acu-Link.com,2013-05-31 03:18:00,
2013-05-30 21:34:00,76.5,27.0,29.58,East,90,0.0,-999.0,16,-99.99,,,0.00,Acu-Link.com,2013-05-31 03:34:00,
2013-05-30 21:49:00,75.6,27.7,29.59,ESE,112,1.1,-999.0,17,-99.99,,,0.00,Acu-Link.com,2013-05-31 03:49:00,
2013-05-30 22:04:00,74.5,26.8,29.60,NNW,337,0.0,-999.0,17,-99.99,,,0.00,Acu-Link.com,2013-05-31 04:04:00,
2013-05-30 22:19:00,73.4,27.3,29.60,SW,225,0.0,-999.0,18,-99.99,,,0.00,Acu-Link.com,2013-05-31 04:19:00,
2013-05-30 22:35:00,72.1,28.8,29.61,SSE,157,0.0,-999.0,20,-99.99,,,0.00,Acu-Link.com,2013-05-31 04:35:00,
2013-05-30 22:50:00,71.8,28.6,29.61,WNW,292,0.0,-999.0,20,-99.99,,,0.00,Acu-Link.com,2013-05-31 04:50:00,
2013-05-30 23:05:00,70.7,28.9,29.62,SSW,202,0.0,-999.0,21,-99.99,,,0.00,Acu-Link.com,2013-05-31 05:05:00,
2013-05-30 23:21:00,70.2,30.7,29.63,ENE,67,0.0,-999.0,23,-99.99,,,0.00,Acu-Link.com,2013-05-31 05:21:00,
2013-05-30 23:36:00,69.4,28.9,29.63,West,270,3.2,-999.0,22,-99.99,,,0.00,Acu-Link.com,2013-05-31 05:36:00,
2013-05-30 23:51:00,68.7,29.4,29.63,SSW,202,0.0,-999.0,23,-99.99,,,0.00,Acu-Link.com,2013-05-31 05:51:00,